^^
Your Local Weather - Clay, NY Station Historical Data
Daily Summary for April 25, 2017 Units:  English    Metric   Both
« Previous Day
Next Day »
Daily Weekly Monthly Yearly Custom
  High: Low: Average:
Temperature: 55.9 °F 46.7 °F 51.4 °F
Dew Point: 48.6 °F 39.1 °F 44.4 °F
Humidity: 88% 61% 77%
Wind Speed: 7.0mph 0.0mph 3.7mph
Wind Gust: 15.0mph - -
Wind- - East
Pressure: 30.08 in 29.85 in -
Precipitation: 0.29 in    
Historical Graphs
 
 
Tabular Data for April 25, 2017
Time Temperature Dew Point Pressure Wind Wind Speed Wind Gust Humidity Rainfall Rate (Hourly) solar
00:00 50.0 °F 41.0 °F 30.05 in Calm     71% 0.00 in 0 W/m2
00:06 49.6 °F 40.6 °F 30.05 in Calm     71% 0.00 in 0 W/m2
00:12 49.4 °F 41.1 °F 30.05 in Calm   1.0 mph 73% 0.00 in 0 W/m2
00:18 49.5 °F 40.5 °F 30.05 in ESE 1.0 mph 1.0 mph 71% 0.00 in 0 W/m2
00:24 49.7 °F 40.3 °F 30.05 in Calm   1.0 mph 70% 0.00 in 0 W/m2
00:30 49.7 °F 40.7 °F 30.05 in ESE 1.0 mph 1.0 mph 71% 0.00 in 0 W/m2
00:36 49.8 °F 40.4 °F 30.05 in East 1.0 mph 2.0 mph 70% 0.00 in 0 W/m2
00:42 49.8 °F 40.4 °F 30.05 in East 1.0 mph 1.0 mph 70% 0.00 in 0 W/m2
00:48 50.0 °F 40.6 °F 30.05 in East 1.0 mph 1.0 mph 70% 0.00 in 0 W/m2
00:54 49.9 °F 40.9 °F 30.04 in Calm   1.0 mph 71% 0.00 in 0 W/m2
01:00 49.8 °F 40.8 °F 30.05 in Calm     71% 0.00 in 0 W/m2
01:06 49.5 °F 40.5 °F 30.05 in Calm     71% 0.00 in 0 W/m2
01:12 49.6 °F 40.2 °F 30.04 in Calm     70% 0.00 in 0 W/m2
01:18 49.7 °F 40.7 °F 30.04 in Calm     71% 0.00 in 0 W/m2
01:24 49.7 °F 40.3 °F 30.04 in Calm     70% 0.00 in 0 W/m2
01:30 49.8 °F 41.5 °F 30.04 in Calm     73% 0.00 in 0 W/m2
01:36 49.5 °F 40.8 °F 30.04 in Calm   1.0 mph 72% 0.00 in 0 W/m2
01:42 49.4 °F 40.7 °F 30.04 in Calm   1.0 mph 72% 0.00 in 0 W/m2
01:48 49.6 °F 41.7 °F 30.04 in ENE 1.0 mph 2.0 mph 74% 0.00 in 0 W/m2
01:54 49.4 °F 41.5 °F 30.04 in Calm   1.0 mph 74% 0.00 in 0 W/m2
02:00 49.1 °F 41.5 °F 30.04 in Calm     75% 0.00 in 0 W/m2
02:06 48.7 °F 41.8 °F 30.03 in Calm     77% 0.00 in 0 W/m2
02:12 48.3 °F 41.4 °F 30.03 in Calm     77% 0.00 in 0 W/m2
02:18 48.0 °F 41.1 °F 30.03 in Calm     77% 0.00 in 0 W/m2
02:24 48.0 °F 41.8 °F 30.03 in Calm     79% 0.00 in 0 W/m2
02:30 48.3 °F 42.1 °F 30.03 in Calm     79% 0.00 in 0 W/m2
02:36 48.5 °F 41.6 °F 30.02 in ENE 1.0 mph 2.0 mph 77% 0.00 in 0 W/m2
02:42 48.7 °F 41.5 °F 30.02 in Calm   1.0 mph 76% 0.00 in 0 W/m2
02:48 49.2 °F 41.3 °F 30.02 in Calm   2.0 mph 74% 0.00 in 0 W/m2
02:54 50.0 °F 41.3 °F 30.02 in ENE 1.0 mph 3.0 mph 72% 0.00 in 0 W/m2
03:00 50.6 °F 41.2 °F 30.02 in NE 1.0 mph 2.0 mph 70% 0.00 in 0 W/m2
03:06 51.2 °F 41.4 °F 30.02 in East 1.0 mph 2.0 mph 69% 0.00 in 0 W/m2
03:12 51.4 °F 41.6 °F 30.02 in NE 1.0 mph 2.0 mph 69% 0.00 in 0 W/m2
03:18 51.0 °F 41.2 °F 30.02 in East 1.0 mph 2.0 mph 69% 0.00 in 0 W/m2
03:24 51.0 °F 41.2 °F 30.02 in ENE 1.0 mph 1.0 mph 69% 0.00 in 0 W/m2
03:30 51.8 °F 41.2 °F 30.02 in East 2.0 mph 2.0 mph 67% 0.00 in 0 W/m2
03:36 52.0 °F 41.0 °F 30.01 in East 3.0 mph 8.0 mph 66% 0.00 in 0 W/m2
03:42 52.2 °F 40.8 °F 30.01 in East 3.0 mph 6.0 mph 65% 0.00 in 0 W/m2
03:48 52.3 °F 40.5 °F 30.00 in ENE 3.0 mph 6.0 mph 64% 0.00 in 0 W/m2
03:54 52.3 °F 40.5 °F 30.01 in ESE 2.0 mph 5.0 mph 64% 0.00 in 0 W/m2
04:00 52.1 °F 40.3 °F 30.01 in East 3.0 mph 3.0 mph 64% 0.00 in 0 W/m2
04:06 52.2 °F 40.0 °F 30.01 in ENE 3.0 mph 4.0 mph 63% 0.00 in 0 W/m2
04:12 52.2 °F 40.0 °F 30.01 in ENE 3.0 mph 3.0 mph 63% 0.00 in 0 W/m2
04:18 52.2 °F 40.0 °F 30.02 in East 3.0 mph 3.0 mph 63% 0.00 in 0 W/m2
04:24 52.3 °F 39.7 °F 30.02 in East 3.0 mph 4.0 mph 62% 0.00 in 0 W/m2
04:30 52.2 °F 39.6 °F 30.02 in ENE 2.0 mph 3.0 mph 62% 0.00 in 0 W/m2
04:36 52.1 °F 39.5 °F 30.02 in ENE 3.0 mph 5.0 mph 62% 0.00 in 0 W/m2
04:42 52.1 °F 39.5 °F 30.02 in NNE 3.0 mph 3.0 mph 62% 0.00 in 0 W/m2
04:48 52.1 °F 39.1 °F 30.02 in East 3.0 mph 5.0 mph 61% 0.00 in 0 W/m2
04:54 52.1 °F 39.5 °F 30.02 in ENE 4.0 mph 5.0 mph 62% 0.00 in 0 W/m2
05:02 52.1 °F 39.1 °F 30.02 in ENE 3.0 mph 4.0 mph 61% 0.00 in 0 W/m2
05:08 51.9 °F 39.3 °F 30.02 in East 3.0 mph 6.0 mph 62% 0.00 in 0 W/m2
05:14 51.7 °F 39.5 °F 30.02 in ENE 3.0 mph 9.0 mph 63% 0.00 in 0 W/m2
05:20 51.5 °F 39.7 °F 30.02 in ENE 3.0 mph 3.0 mph 64% 0.00 in 0 W/m2
05:26 51.3 °F 39.5 °F 30.02 in NE 2.0 mph 4.0 mph 64% 0.00 in 0 W/m2
05:32 51.2 °F 39.8 °F 30.02 in ENE 2.0 mph 5.0 mph 65% 0.00 in 0 W/m2
05:38 51.0 °F 40.0 °F 30.02 in ENE 2.0 mph 5.0 mph 66% 0.00 in 0 W/m2
05:44 50.8 °F 40.6 °F 30.03 in East 2.0 mph 2.0 mph 68% 0.00 in 0 W/m2
05:50 50.2 °F 41.2 °F 30.03 in ENE 3.0 mph 3.0 mph 71% 0.00 in 0 W/m2
05:56 49.7 °F 41.0 °F 30.03 in ENE 3.0 mph 5.0 mph 72% 0.00 in 0 W/m2
06:02 49.6 °F 41.3 °F 30.03 in ENE 3.0 mph 4.0 mph 73% 0.00 in 0 W/m2
06:08 49.4 °F 41.5 °F 30.03 in East 3.0 mph 4.0 mph 74% 0.00 in 0 W/m2
06:14 49.4 °F 41.8 °F 30.03 in ENE 3.0 mph 4.0 mph 75% 0.00 in 0 W/m2
06:20 49.3 °F 41.7 °F 30.03 in NE 3.0 mph 3.0 mph 75% 0.00 in 0 W/m2
06:26 49.3 °F 41.7 °F 30.04 in NE 3.0 mph 4.0 mph 75% 0.00 in 7 W/m2
06:32 49.3 °F 41.4 °F 30.04 in East 3.0 mph 3.0 mph 74% 0.00 in 7 W/m2
06:38 49.4 °F 41.5 °F 30.04 in ENE 2.0 mph 3.0 mph 74% 0.00 in 9 W/m2
06:44 49.5 °F 41.6 °F 30.04 in East 3.0 mph 5.0 mph 74% 0.00 in 11 W/m2
06:56 49.7 °F 41.4 °F 30.05 in East 3.0 mph 3.0 mph 73% 0.00 in 16 W/m2
07:02 49.8 °F 41.1 °F 30.05 in ENE 2.0 mph 3.0 mph 72% 0.00 in 19 W/m2
07:08 49.8 °F 41.1 °F 30.05 in East 2.0 mph 3.0 mph 72% 0.00 in 23 W/m2
07:14 49.8 °F 41.1 °F 30.06 in East 2.0 mph 5.0 mph 72% 0.00 in 25 W/m2
07:20 49.9 °F 41.2 °F 30.06 in East 2.0 mph 2.0 mph 72% 0.00 in 30 W/m2
07:26 49.8 °F 41.1 °F 30.06 in ESE 2.0 mph 3.0 mph 72% 0.00 in 37 W/m2
07:32 49.6 °F 41.7 °F 30.06 in ESE 2.0 mph 3.0 mph 74% 0.00 in 42 W/m2
07:38 49.5 °F 41.9 °F 30.06 in NE 1.0 mph 3.0 mph 75% 0.00 in 40 W/m2
07:44 49.4 °F 41.8 °F 30.07 in ENE 2.0 mph 6.0 mph 75% 0.00 in 39 W/m2
07:50 49.3 °F 42.1 °F 30.07 in NE 3.0 mph 6.0 mph 76% 0.00 in 42 W/m2
07:56 49.1 °F 41.9 °F 30.07 in ENE 3.0 mph 10.0 mph 76% 0.00 in 51 W/m2
08:02 48.9 °F 41.7 °F 30.07 in East 4.0 mph 8.0 mph 76% 0.00 in 51 W/m2
08:08 48.8 °F 41.9 °F 30.07 in ENE 4.0 mph 8.0 mph 77% 0.00 in 54 W/m2
08:14 48.6 °F 42.0 °F 30.06 in NE 4.0 mph 7.0 mph 78% 0.00 in 56 W/m2
08:20 48.3 °F 41.8 °F 30.07 in East 5.0 mph 6.0 mph 78% 0.00 in 60 W/m2
08:26 48.1 °F 41.9 °F 30.07 in East 5.0 mph 6.0 mph 79% 0.00 in 84 W/m2
08:32 48.0 °F 42.4 °F 30.07 in ENE 4.0 mph 4.0 mph 81% 0.00 in 83 W/m2
08:38 47.8 °F 42.3 °F 30.07 in ENE 3.0 mph 9.0 mph 81% 0.00 in 67 W/m2
08:44 47.6 °F 42.4 °F 30.07 in ENE 3.0 mph 10.0 mph 82% 0.05 in 63 W/m2
08:50 47.3 °F 42.1 °F 30.07 in ESE 4.0 mph 4.0 mph 82% 0.05 in 60 W/m2
08:56 47.2 °F 42.3 °F 30.07 in NE 5.0 mph 7.0 mph 83% 0.06 in 67 W/m2
09:02 47.0 °F 42.4 °F 30.07 in ENE 5.0 mph 9.0 mph 84% 0.11 in 67 W/m2
09:08 46.9 °F 42.6 °F 30.07 in NE 5.0 mph 9.0 mph 85% 0.21 in 74 W/m2
09:14 46.8 °F 42.5 °F 30.07 in NNE 4.0 mph 9.0 mph 85% 0.23 in 79 W/m2
09:20 46.8 °F 42.8 °F 30.07 in ENE 4.0 mph 4.0 mph 86% 0.11 in 76 W/m2
09:26 46.7 °F 42.7 °F 30.08 in NE 5.0 mph 8.0 mph 86% 0.07 in 74 W/m2
09:32 46.7 °F 42.7 °F 30.07 in East 5.0 mph 8.0 mph 86% 0.07 in 95 W/m2
09:38 46.7 °F 43.0 °F 30.07 in ENE 5.0 mph 8.0 mph 87% 0.05 in 134 W/m2
09:44 46.7 °F 43.0 °F 30.07 in ENE 5.0 mph 8.0 mph 87% 0.05 in 155 W/m2
09:50 46.9 °F 43.2 °F 30.07 in NNE 5.0 mph 5.0 mph 87% 0.05 in 163 W/m2
09:56 47.1 °F 43.4 °F 30.07 in ESE 4.0 mph 9.0 mph 87% 0.00 in 153 W/m2
10:02 47.3 °F 43.3 °F 30.07 in East 5.0 mph 6.0 mph 86% 0.00 in 127 W/m2
10:08 47.4 °F 43.4 °F 30.07 in East 5.0 mph 6.0 mph 86% 0.00 in 123 W/m2
10:14 47.4 °F 43.4 °F 30.07 in East 5.0 mph 9.0 mph 86% 0.15 in 114 W/m2
10:20 47.4 °F 43.4 °F 30.07 in ENE 5.0 mph 8.0 mph 86% 0.10 in 83 W/m2
10:26 47.3 °F 43.6 °F 30.07 in ENE 5.0 mph 8.0 mph 87% 0.14 in 77 W/m2
10:32 47.2 °F 43.5 °F 30.07 in East 4.0 mph 5.0 mph 87% 0.39 in 91 W/m2
10:39 47.2 °F 43.8 °F 30.07 in East 4.0 mph 7.0 mph 88% 0.19 in 105 W/m2
10:44 47.4 °F 44.0 °F 30.07 in East 5.0 mph 7.0 mph 88% 0.07 in 116 W/m2
10:50 47.6 °F 43.9 °F 30.07 in East 5.0 mph 5.0 mph 87% 0.04 in 134 W/m2
10:56 48.0 °F 44.6 °F 30.07 in ESE 4.0 mph 5.0 mph 88% 0.04 in 193 W/m2
11:02 48.3 °F 44.6 °F 30.07 in East 4.0 mph 9.0 mph 87% 0.04 in 221 W/m2
11:08 48.5 °F 44.5 °F 30.07 in NE 5.0 mph 9.0 mph 86% 0.04 in 221 W/m2
11:14 48.8 °F 44.8 °F 30.07 in NE 4.0 mph 7.0 mph 86% 0.00 in 213 W/m2
11:20 48.8 °F 44.8 °F 30.07 in ENE 4.0 mph 4.0 mph 86% 0.00 in 193 W/m2
11:26 48.7 °F 44.7 °F 30.07 in ESE 4.0 mph 8.0 mph 86% 0.00 in 171 W/m2
11:32 48.6 °F 44.9 °F 30.07 in East 4.0 mph 4.0 mph 87% 0.00 in 211 W/m2
11:38 48.6 °F 44.9 °F 30.06 in ESE 4.0 mph 4.0 mph 87% 0.00 in 251 W/m2
11:44 48.7 °F 45.0 °F 30.06 in East 5.0 mph 5.0 mph 87% 0.00 in 285 W/m2
11:50 48.8 °F 45.1 °F 30.05 in ESE 5.0 mph 5.0 mph 87% 0.00 in 281 W/m2
11:56 48.6 °F 44.6 °F 30.05 in NE 5.0 mph 7.0 mph 86% 0.00 in 267 W/m2
12:02 48.6 °F 44.9 °F 30.05 in ENE 5.0 mph 5.0 mph 87% 0.00 in 302 W/m2
12:08 48.8 °F 45.1 °F 30.05 in East 5.0 mph 7.0 mph 87% 0.00 in 309 W/m2
12:14 48.9 °F 45.2 °F 30.05 in ESE 5.0 mph 13.0 mph 87% 0.00 in 315 W/m2
12:20 49.0 °F 45.0 °F 30.05 in ENE 5.0 mph 9.0 mph 86% 0.00 in 320 W/m2
12:26 49.3 °F 45.6 °F 30.05 in ESE 6.0 mph 9.0 mph 87% 0.00 in 244 W/m2
12:32 49.6 °F 45.6 °F 30.04 in ENE 5.0 mph 5.0 mph 86% 0.00 in 276 W/m2
12:38 50.0 °F 46.3 °F 30.03 in East 4.0 mph 5.0 mph 87% 0.00 in 311 W/m2
12:44 50.3 °F 46.3 °F 30.03 in East 4.0 mph 8.0 mph 86% 0.00 in 350 W/m2
12:50 50.9 °F 47.2 °F 30.03 in East 4.0 mph 4.0 mph 87% 0.00 in 359 W/m2
12:56 51.0 °F 46.6 °F 30.03 in SE 5.0 mph 5.0 mph 85% 0.00 in 381 W/m2
13:02 51.7 °F 47.0 °F 30.03 in East 6.0 mph 8.0 mph 84% 0.00 in 401 W/m2
13:08 52.0 °F 47.0 °F 30.02 in East 6.0 mph 9.0 mph 83% 0.00 in 345 W/m2
13:14 52.1 °F 46.8 °F 30.02 in NE 6.0 mph 9.0 mph 82% 0.00 in 274 W/m2
13:20 52.0 °F 46.7 °F 30.02 in ESE 7.0 mph 7.0 mph 82% 0.00 in 213 W/m2
13:26 52.4 °F 47.7 °F 30.02 in East 4.0 mph 7.0 mph 84% 0.00 in 209 W/m2
13:32 52.4 °F 47.7 °F 30.02 in East 3.0 mph 5.0 mph 84% 0.00 in 302 W/m2
13:38 53.0 °F 48.3 °F 30.02 in ESE 4.0 mph 5.0 mph 84% 0.00 in 385 W/m2
13:44 53.7 °F 48.3 °F 30.02 in ENE 4.0 mph 6.0 mph 82% 0.00 in 394 W/m2
13:50 54.0 °F 48.6 °F 30.01 in ENE 5.0 mph 5.0 mph 82% 0.00 in 311 W/m2
13:56 53.9 °F 47.9 °F 30.01 in SE 6.0 mph 8.0 mph 80% 0.00 in 279 W/m2
14:02 53.8 °F 47.8 °F 30.00 in East 5.0 mph 5.0 mph 80% 0.00 in 241 W/m2
14:10 53.3 °F 47.3 °F 30.00 in East 5.0 mph 8.0 mph 80% 0.00 in 213 W/m2
14:16 53.0 °F 47.0 °F 30.00 in ENE 6.0 mph 8.0 mph 80% 0.00 in 244 W/m2
14:22 53.0 °F 47.0 °F 30.00 in ENE 5.0 mph 5.0 mph 80% 0.00 in 323 W/m2
14:28 52.9 °F 46.9 °F 30.00 in SSW 5.0 mph 10.0 mph 80% 0.00 in 392 W/m2
14:34 52.9 °F 46.9 °F 30.00 in NNE 6.0 mph 8.0 mph 80% 0.00 in 369 W/m2
14:40 53.0 °F 46.7 °F 30.00 in East 6.0 mph 6.0 mph 79% 0.00 in 343 W/m2
14:46 52.9 °F 46.2 °F 29.99 in East 5.0 mph 11.0 mph 78% 0.00 in 315 W/m2
14:52 53.4 °F 47.4 °F 29.99 in NE 5.0 mph 5.0 mph 80% 0.00 in 262 W/m2
14:58 53.8 °F 47.4 °F 29.99 in ENE 4.0 mph 5.0 mph 79% 0.00 in 246 W/m2
15:04 54.0 °F 47.0 °F 29.99 in SE 5.0 mph 7.0 mph 77% 0.00 in 290 W/m2
15:10 54.3 °F 47.6 °F 29.98 in ENE 6.0 mph 8.0 mph 78% 0.00 in 360 W/m2
15:16 54.8 °F 47.7 °F 29.98 in East 6.0 mph 8.0 mph 77% 0.00 in 378 W/m2
15:22 55.7 °F 48.2 °F 29.97 in ESE 4.0 mph 7.0 mph 76% 0.00 in 471 W/m2
15:28 55.8 °F 47.3 °F 29.97 in ESE 5.0 mph 7.0 mph 73% 0.00 in 415 W/m2
15:34 55.3 °F 47.5 °F 29.97 in East 5.0 mph 5.0 mph 75% 0.00 in 316 W/m2
15:40 55.3 °F 47.9 °F 29.97 in East 5.0 mph 5.0 mph 76% 0.00 in 350 W/m2
15:46 55.2 °F 47.8 °F 29.97 in East 5.0 mph 9.0 mph 76% 0.00 in 448 W/m2
15:52 55.1 °F 47.7 °F 29.97 in ENE 5.0 mph 8.0 mph 76% 0.00 in 422 W/m2
15:58 55.0 °F 47.2 °F 29.97 in East 6.0 mph 8.0 mph 75% 0.00 in 401 W/m2
16:04 55.1 °F 47.3 °F 29.97 in ENE 6.0 mph 12.0 mph 75% 0.00 in 320 W/m2
16:10 55.1 °F 47.7 °F 29.96 in East 5.0 mph 11.0 mph 76% 0.00 in 276 W/m2
16:16 55.1 °F 47.7 °F 29.96 in North 6.0 mph 11.0 mph 76% 0.00 in 272 W/m2
16:22 55.2 °F 47.4 °F 29.96 in NE 5.0 mph 8.0 mph 75% 0.00 in 283 W/m2
16:28 55.1 °F 47.0 °F 29.95 in East 6.0 mph 8.0 mph 74% 0.00 in 267 W/m2
16:34 54.8 °F 47.0 °F 29.95 in East 6.0 mph 10.0 mph 75% 0.00 in 251 W/m2
16:40 54.6 °F 46.8 °F 29.95 in ENE 6.0 mph 6.0 mph 75% 0.00 in 264 W/m2
16:46 54.5 °F 47.1 °F 29.95 in NE 6.0 mph 8.0 mph 76% 0.00 in 262 W/m2
16:52 54.8 °F 47.0 °F 29.95 in ESE 6.0 mph 6.0 mph 75% 0.00 in 297 W/m2
16:58 54.8 °F 47.4 °F 29.94 in East 6.0 mph 10.0 mph 76% 0.00 in 246 W/m2
17:03 55.0 °F 47.6 °F 29.94 in East 6.0 mph 8.0 mph 76% 0.00 in 232 W/m2
17:10 55.1 °F 47.7 °F 29.94 in East 6.0 mph 7.0 mph 76% 0.00 in 295 W/m2
17:16 55.3 °F 47.5 °F 29.94 in ENE 6.0 mph 8.0 mph 75% 0.00 in 220 W/m2
17:22 55.5 °F 47.7 °F 29.94 in ENE 6.0 mph 6.0 mph 75% 0.00 in 169 W/m2
17:28 55.6 °F 47.8 °F 29.94 in NE 5.0 mph 6.0 mph 75% 0.00 in 243 W/m2
17:34 55.7 °F 47.9 °F 29.94 in NE 5.0 mph 8.0 mph 75% 0.00 in 181 W/m2
17:40 55.9 °F 48.1 °F 29.93 in ENE 5.0 mph 5.0 mph 75% 0.00 in 162 W/m2
17:46 55.7 °F 47.9 °F 29.93 in ENE 5.0 mph 10.0 mph 75% 0.00 in 135 W/m2
17:52 55.5 °F 47.7 °F 29.93 in SW 5.0 mph 5.0 mph 75% 0.00 in 114 W/m2
17:58 55.2 °F 47.4 °F 29.94 in ESE 4.0 mph 5.0 mph 75% 0.00 in 134 W/m2
18:04 55.0 °F 47.6 °F 29.93 in East 5.0 mph 7.0 mph 76% 0.00 in 125 W/m2
18:10 54.9 °F 47.5 °F 29.93 in ESE 6.0 mph 10.0 mph 76% 0.00 in 100 W/m2
18:16 54.9 °F 47.5 °F 29.94 in East 6.0 mph 10.0 mph 76% 0.00 in 93 W/m2
18:22 54.9 °F 47.5 °F 29.94 in SE 6.0 mph 6.0 mph 76% 0.00 in 83 W/m2
18:28 54.8 °F 47.4 °F 29.93 in ENE 5.0 mph 11.0 mph 76% 0.00 in 74 W/m2
18:34 54.7 °F 47.6 °F 29.94 in ENE 4.0 mph 5.0 mph 77% 0.00 in 69 W/m2
18:40 54.3 °F 47.2 °F 29.93 in ENE 4.0 mph 9.0 mph 77% 0.00 in 62 W/m2
18:46 54.1 °F 47.4 °F 29.93 in ESE 4.0 mph 9.0 mph 78% 0.00 in 54 W/m2
18:52 54.2 °F 47.5 °F 29.93 in NE 3.0 mph 6.0 mph 78% 0.00 in 49 W/m2
18:58 54.2 °F 47.5 °F 29.93 in East 2.0 mph 6.0 mph 78% 0.00 in 44 W/m2
19:04 54.1 °F 47.4 °F 29.93 in NE 3.0 mph 3.0 mph 78% 0.00 in 30 W/m2
19:10 53.8 °F 47.1 °F 29.93 in NNE 4.0 mph 4.0 mph 78% 0.00 in 28 W/m2
19:16 53.6 °F 46.9 °F 29.93 in ENE 4.0 mph 5.0 mph 78% 0.00 in 23 W/m2
19:22 53.6 °F 47.2 °F 29.93 in ENE 4.0 mph 5.0 mph 79% 0.00 in 18 W/m2
19:28 53.6 °F 46.9 °F 29.93 in East 4.0 mph 5.0 mph 78% 0.00 in 16 W/m2
19:34 53.5 °F 46.8 °F 29.93 in ENE 4.0 mph 5.0 mph 78% 0.00 in 12 W/m2
19:40 53.5 °F 46.8 °F 29.93 in ENE 5.0 mph 5.0 mph 78% 0.00 in 9 W/m2
19:46 53.5 °F 46.8 °F 29.93 in NE 5.0 mph 6.0 mph 78% 0.00 in 5 W/m2
19:52 53.5 °F 46.8 °F 29.92 in NE 6.0 mph 6.0 mph 78% 0.00 in 0 W/m2
19:58 53.5 °F 46.8 °F 29.92 in East 5.0 mph 6.0 mph 78% 0.00 in 0 W/m2
20:04 53.4 °F 46.7 °F 29.92 in ESE 5.0 mph 10.0 mph 78% 0.00 in 0 W/m2
20:10 53.4 °F 46.7 °F 29.92 in NE 5.0 mph 5.0 mph 78% 0.00 in 0 W/m2
20:16 53.4 °F 46.7 °F 29.92 in North 5.0 mph 10.0 mph 78% 0.00 in 0 W/m2
20:22 53.4 °F 46.7 °F 29.92 in ESE 5.0 mph 7.0 mph 78% 0.00 in 0 W/m2
20:28 53.4 °F 46.4 °F 29.92 in SE 4.0 mph 7.0 mph 77% 0.00 in 0 W/m2
20:34 53.5 °F 46.5 °F 29.92 in ENE 5.0 mph 8.0 mph 77% 0.00 in 0 W/m2
20:40 53.5 °F 46.5 °F 29.92 in NE 5.0 mph 5.0 mph 77% 0.00 in 0 W/m2
20:46 53.4 °F 46.4 °F 29.92 in ENE 4.0 mph 6.0 mph 77% 0.00 in 0 W/m2
20:52 53.4 °F 46.4 °F 29.92 in ENE 4.0 mph 7.0 mph 77% 0.00 in 0 W/m2
20:58 53.4 °F 46.7 °F 29.92 in ESE 4.0 mph 10.0 mph 78% 0.00 in 0 W/m2
21:04 53.4 °F 46.7 °F 29.92 in NNE 5.0 mph 5.0 mph 78% 0.00 in 0 W/m2
21:10 53.3 °F 46.6 °F 29.92 in NE 5.0 mph 5.0 mph 78% 0.00 in 0 W/m2
21:16 53.4 °F 46.7 °F 29.91 in East 5.0 mph 6.0 mph 78% 0.00 in 0 W/m2
21:22 53.3 °F 46.6 °F 29.91 in SSE 4.0 mph 7.0 mph 78% 0.00 in 0 W/m2
21:28 53.3 °F 46.6 °F 29.91 in ENE 5.0 mph 7.0 mph 78% 0.00 in 0 W/m2
21:34 53.2 °F 46.5 °F 29.91 in East 5.0 mph 8.0 mph 78% 0.00 in 0 W/m2
21:40 53.2 °F 46.5 °F 29.91 in ESE 6.0 mph 7.0 mph 78% 0.00 in 0 W/m2
21:46 53.1 °F 46.8 °F 29.91 in SE 5.0 mph 8.0 mph 79% 0.00 in 0 W/m2
21:52 53.1 °F 46.8 °F 29.91 in ENE 5.0 mph 9.0 mph 79% 0.00 in 0 W/m2
21:58 53.1 °F 46.8 °F 29.90 in SE 5.0 mph 9.0 mph 79% 0.00 in 0 W/m2
22:04 53.0 °F 46.7 °F 29.90 in NE 5.0 mph 5.0 mph 79% 0.00 in 0 W/m2
22:10 53.0 °F 46.7 °F 29.90 in SE 5.0 mph 5.0 mph 79% 0.00 in 0 W/m2
22:16 52.9 °F 46.6 °F 29.90 in NNE 5.0 mph 7.0 mph 79% 0.00 in 0 W/m2
22:22 52.8 °F 46.8 °F 29.90 in ESE 4.0 mph 5.0 mph 80% 0.00 in 0 W/m2
22:28 52.7 °F 47.0 °F 29.89 in East 5.0 mph 8.0 mph 81% 0.00 in 0 W/m2
22:34 52.6 °F 46.9 °F 29.89 in East 5.0 mph 15.0 mph 81% 0.00 in 0 W/m2
22:40 52.6 °F 46.9 °F 29.89 in East 4.0 mph 4.0 mph 81% 0.00 in 0 W/m2
22:46 52.6 °F 46.6 °F 29.89 in ESE 5.0 mph 8.0 mph 80% 0.00 in 0 W/m2
22:52 52.6 °F 46.9 °F 29.88 in ENE 5.0 mph 5.0 mph 81% 0.00 in 0 W/m2
22:58 52.5 °F 46.8 °F 29.88 in SSE 4.0 mph 9.0 mph 81% 0.00 in 0 W/m2
23:04 52.4 °F 46.7 °F 29.88 in ESE 4.0 mph 4.0 mph 81% 0.00 in 0 W/m2
23:10 52.4 °F 46.7 °F 29.88 in East 4.0 mph 5.0 mph 81% 0.00 in 0 W/m2
23:16 52.2 °F 46.9 °F 29.88 in SE 4.0 mph 5.0 mph 82% 0.00 in 0 W/m2
23:22 51.8 °F 47.1 °F 29.88 in South 4.0 mph 4.0 mph 84% 0.00 in 0 W/m2
23:28 51.4 °F 47.0 °F 29.87 in ESE 3.0 mph 4.0 mph 85% 0.00 in 0 W/m2
23:34 51.2 °F 47.2 °F 29.87 in ESE 3.0 mph 4.0 mph 86% 0.00 in 0 W/m2
23:40 51.1 °F 47.1 °F 29.86 in East 5.0 mph 6.0 mph 86% 0.00 in 0 W/m2
23:46 51.1 °F 47.1 °F 29.86 in ENE 5.0 mph 6.0 mph 86% 0.00 in 0 W/m2
23:52 51.0 °F 47.3 °F 29.85 in ENE 5.0 mph 10.0 mph 87% 0.00 in 0 W/m2
23:58 50.9 °F 47.2 °F 29.85 in SE 4.0 mph 10.0 mph 87% 0.00 in 0 W/m2
Country Meadow, Clay, NY, USA
Compliments of Weather Underground - 2 mb